createdAt,value
2018-10-18T00:01:12.713Z,102070.19
2018-10-18T00:03:41.094Z,102075.36
2018-10-18T00:06:09.429Z,102064.06
2018-10-18T00:08:37.669Z,102066.70
2018-10-18T00:11:06.433Z,102058.92
2018-10-18T00:13:35.221Z,102066.13
2018-10-18T00:16:03.530Z,102067.58
2018-10-18T00:18:31.850Z,102062.88
2018-10-18T00:21:00.131Z,102068.63
2018-10-18T00:23:28.411Z,102063.83
2018-10-18T00:25:57.933Z,102061.69
2018-10-18T00:28:26.224Z,102062.98
2018-10-18T00:30:54.510Z,102065.64
2018-10-18T00:33:22.818Z,102067.67
2018-10-18T00:35:51.179Z,102069.20
2018-10-18T00:38:19.525Z,102074.50
2018-10-18T00:40:47.909Z,102071.02
2018-10-18T00:43:16.198Z,102068.62
2018-10-18T00:45:44.478Z,102077.37
2018-10-18T00:48:12.952Z,102076.86
2018-10-18T00:50:43.161Z,102072.16
2018-10-18T00:53:11.449Z,102073.13
2018-10-18T00:55:39.774Z,102083.88
2018-10-18T00:58:08.172Z,102078.49
2018-10-18T01:00:37.522Z,102077.05
2018-10-18T01:03:06.046Z,102079.55
2018-10-18T01:05:34.335Z,102071.53
2018-10-18T01:08:02.691Z,102074.67
2018-10-18T01:10:31.000Z,102078.71
2018-10-18T01:12:59.340Z,102080.30
2018-10-18T01:15:27.677Z,102072.48
2018-10-18T01:17:55.981Z,102068.55
2018-10-18T01:20:24.278Z,102073.34
2018-10-18T01:22:52.678Z,102074.16
2018-10-18T01:25:21.013Z,102074.14
2018-10-18T01:27:49.306Z,102070.55
2018-10-18T01:30:17.598Z,102072.48
2018-10-18T01:32:45.929Z,102077.52
2018-10-18T01:35:14.233Z,102080.45
2018-10-18T01:37:42.650Z,102064.04
2018-10-18T01:40:10.974Z,102069.08
2018-10-18T01:42:39.267Z,102072.78
2018-10-18T01:45:08.640Z,102071.82
2018-10-18T01:47:37.007Z,102080.45
2018-10-18T01:50:06.780Z,102081.17
2018-10-18T01:52:35.063Z,102075.67
2018-10-18T01:55:03.766Z,102080.10
2018-10-18T01:57:32.052Z,102069.11
2018-10-18T02:00:01.467Z,102071.03
2018-10-18T02:02:29.766Z,102080.09
2018-10-18T02:04:58.049Z,102079.28
2018-10-18T02:07:26.338Z,102078.21
2018-10-18T02:09:54.665Z,102076.26
2018-10-18T02:12:22.950Z,102076.61
2018-10-18T02:14:51.273Z,102075.19
2018-10-18T02:17:19.574Z,102069.06
2018-10-18T02:19:47.879Z,102063.31
2018-10-18T02:22:16.158Z,102062.38
2018-10-18T02:24:45.545Z,102066.22
2018-10-18T02:27:13.833Z,102070.15
2018-10-18T02:29:42.126Z,102064.29
2018-10-18T02:32:10.436Z,102072.28
2018-10-18T02:34:38.705Z,102074.80
2018-10-18T02:37:06.985Z,102074.58
2018-10-18T02:39:35.347Z,102083.08
2018-10-18T02:42:03.632Z,102086.43
2018-10-18T02:44:31.894Z,102084.66
2018-10-18T02:47:00.190Z,102089.57
2018-10-18T02:49:28.447Z,102094.73
2018-10-18T02:51:56.732Z,102097.83
2018-10-18T02:54:25.095Z,102098.28
2018-10-18T02:56:53.369Z,102100.52
2018-10-18T02:59:21.633Z,102098.39
2018-10-18T03:01:49.933Z,102101.42
2018-10-18T03:04:18.203Z,102103.08
2018-10-18T03:06:46.481Z,102099.61
2018-10-18T03:09:14.774Z,102091.63
2018-10-18T03:11:43.038Z,102093.55
2018-10-18T03:14:11.311Z,102098.55
2018-10-18T03:16:39.607Z,102095.09
2018-10-18T03:19:07.874Z,102096.99
2018-10-18T03:21:36.146Z,102098.19
2018-10-18T03:24:04.791Z,102092.34
2018-10-18T03:26:33.046Z,102098.42
2018-10-18T03:29:01.312Z,102099.88
2018-10-18T03:31:29.602Z,102097.49
2018-10-18T03:33:57.897Z,102102.34
2018-10-18T03:36:26.203Z,102099.70
2018-10-18T03:38:54.762Z,102094.13
2018-10-18T03:41:23.463Z,102091.09
2018-10-18T03:43:51.723Z,102092.48
2018-10-18T03:46:20.062Z,102099.75
2018-10-18T03:48:48.362Z,102095.09
2018-10-18T03:51:16.633Z,102096.80
2018-10-18T03:53:44.934Z,102105.50
2018-10-18T03:56:13.260Z,102106.23
2018-10-18T03:58:41.526Z,102098.70
2018-10-18T04:01:09.805Z,102100.51
2018-10-18T04:03:38.075Z,102102.99
2018-10-18T04:06:06.412Z,102105.88
2018-10-18T04:08:34.646Z,102108.16
2018-10-18T04:11:02.906Z,102112.22
2018-10-18T04:13:31.175Z,102117.27
2018-10-18T04:15:59.678Z,102111.86
2018-10-18T04:18:27.989Z,102115.69
2018-10-18T04:20:56.210Z,102120.38
2018-10-18T04:23:31.994Z,102118.45
2018-10-18T04:26:00.866Z,102121.58
2018-10-18T04:28:29.373Z,102122.05
2018-10-18T04:30:57.750Z,102125.75
2018-10-18T04:33:26.058Z,102133.36
2018-10-18T04:35:54.350Z,102131.58
2018-10-18T04:38:22.650Z,102131.15
2018-10-18T04:40:50.901Z,102135.81
2018-10-18T04:43:19.174Z,102131.37
2018-10-18T04:45:47.462Z,102129.65
2018-10-18T04:48:15.916Z,102130.40
2018-10-18T04:50:44.118Z,102126.10
2018-10-18T04:53:12.650Z,102131.25
2018-10-18T04:55:40.967Z,102139.28
2018-10-18T04:58:09.241Z,102138.56
2018-10-18T05:00:37.510Z,102147.03
2018-10-18T05:03:05.777Z,102146.83
2018-10-18T05:05:48.366Z,102143.61
2018-10-18T05:08:16.656Z,102148.25
2018-10-18T05:10:44.918Z,102147.78
2018-10-18T05:13:13.285Z,102146.84
2018-10-18T05:15:41.503Z,102143.48
2018-10-18T05:18:09.770Z,102137.02
2018-10-18T05:20:38.137Z,102142.41
2018-10-18T05:23:06.802Z,102146.98
2018-10-18T05:25:35.200Z,102151.64
2018-10-18T05:28:03.996Z,102149.02
2018-10-18T05:30:32.337Z,102162.08
2018-10-18T05:33:00.831Z,102164.83
2018-10-18T05:35:29.138Z,102167.00
2018-10-18T05:37:57.454Z,102177.44
2018-10-18T05:40:25.726Z,102183.53
2018-10-18T05:42:54.116Z,102181.00
2018-10-18T05:45:22.378Z,102180.53
2018-10-18T05:47:51.657Z,102180.23
2018-10-18T05:50:20.102Z,102172.13
2018-10-18T05:52:48.377Z,102175.13
2018-10-18T05:55:16.685Z,102176.43
2018-10-18T05:57:44.948Z,102180.70
2018-10-18T06:00:15.995Z,102183.61
2018-10-18T06:02:44.583Z,102183.13
2018-10-18T06:05:17.784Z,102187.92
2018-10-18T06:07:46.421Z,102183.88
2018-10-18T06:10:27.659Z,102184.03
2018-10-18T06:12:56.053Z,102189.25
2018-10-18T06:15:24.562Z,102198.98
2018-10-18T06:17:52.874Z,102206.84
2018-10-18T06:20:21.853Z,102202.23
2018-10-18T06:22:50.176Z,102207.68
2018-10-18T06:25:18.567Z,102208.36
2018-10-18T06:27:46.765Z,102206.44
2018-10-18T06:30:16.372Z,102206.72
2018-10-18T06:32:44.869Z,102201.58
2018-10-18T06:35:14.504Z,102208.42
2018-10-18T06:37:42.781Z,102206.37
2018-10-18T06:40:16.018Z,102205.66
2018-10-18T06:42:44.314Z,102208.28
2018-10-18T06:45:17.031Z,102212.25
2018-10-18T06:47:46.569Z,102218.62
2018-10-18T06:50:19.094Z,102231.07
2018-10-18T06:52:47.421Z,102227.23
2018-10-18T06:55:15.777Z,102229.87
2018-10-18T06:57:44.550Z,102227.48
2018-10-18T07:00:16.967Z,102228.45
2018-10-18T07:02:45.498Z,102231.42
2018-10-18T07:05:14.865Z,102237.50
2018-10-18T07:07:44.790Z,102240.97
2018-10-18T07:10:13.166Z,102243.84
2018-10-18T07:12:42.870Z,102244.59
2018-10-18T07:15:13.201Z,102243.78
2018-10-18T07:17:42.409Z,102249.17
2018-10-18T07:20:11.073Z,102257.83
2018-10-18T07:22:39.891Z,102261.97
2018-10-18T07:25:10.760Z,102258.81
2018-10-18T07:27:39.601Z,102261.78
2018-10-18T07:30:09.452Z,102262.24
2018-10-18T07:32:37.710Z,102262.95
2018-10-18T07:35:08.687Z,102258.91
2018-10-18T07:37:37.014Z,102259.02
2018-10-18T07:40:06.474Z,102268.96
2018-10-18T07:42:34.769Z,102264.00
2018-10-18T07:45:03.130Z,102273.52
2018-10-18T07:47:31.444Z,102272.03
2018-10-18T07:49:59.682Z,102277.56
2018-10-18T07:52:27.941Z,102278.66
2018-10-18T07:54:56.110Z,102283.45
2018-10-18T07:57:24.426Z,102282.25
2018-10-18T07:59:53.807Z,102286.09
2018-10-18T08:02:22.046Z,102282.27
2018-10-18T08:04:50.338Z,102284.20
2018-10-18T08:07:18.674Z,102297.47
2018-10-18T08:09:46.967Z,102295.45
2018-10-18T08:12:15.256Z,102301.91
2018-10-18T08:14:43.610Z,102301.98
2018-10-18T08:17:13.132Z,102304.37
2018-10-18T08:19:41.369Z,102311.53
2018-10-18T08:22:09.707Z,102307.67
2018-10-18T08:24:38.014Z,102308.53
2018-10-18T08:27:06.333Z,102309.08
2018-10-18T08:29:34.682Z,102313.09
2018-10-18T08:32:02.986Z,102315.41
2018-10-18T08:34:31.313Z,102321.39
2018-10-18T08:36:59.656Z,102319.40
2018-10-18T08:39:27.893Z,102325.30
2018-10-18T08:41:57.279Z,102319.31
2018-10-18T08:44:25.916Z,102328.41
2018-10-18T08:46:54.154Z,102318.09
2018-10-18T08:49:22.452Z,102325.69
2018-10-18T08:51:50.751Z,102333.05
2018-10-18T08:54:20.074Z,102333.12
2018-10-18T08:56:48.498Z,102335.44
2018-10-18T08:59:16.840Z,102342.52
2018-10-18T09:01:45.134Z,102346.03
2018-10-18T09:04:13.438Z,102355.45
2018-10-18T09:06:41.780Z,102346.16
2018-10-18T09:09:10.340Z,102356.81
2018-10-18T09:11:38.696Z,102359.63
2018-10-18T09:14:07.431Z,102369.14
2018-10-18T09:16:36.873Z,102366.63
2018-10-18T09:19:05.642Z,102376.33
2018-10-18T09:21:35.238Z,102372.30
2018-10-18T09:24:03.578Z,102377.17
2018-10-18T09:26:31.930Z,102383.23
2018-10-18T09:29:00.250Z,102383.92
2018-10-18T09:31:30.521Z,102383.79
2018-10-18T09:33:58.834Z,102380.72
2018-10-18T09:36:28.185Z,102382.91
2018-10-18T09:38:56.503Z,102385.03
2018-10-18T09:41:24.802Z,102392.72
2018-10-18T09:43:58.370Z,102389.15
2018-10-18T09:46:26.902Z,102392.42
2018-10-18T09:48:55.357Z,102394.70
2018-10-18T09:51:23.597Z,102396.44
2018-10-18T09:53:51.873Z,102397.84
2018-10-18T09:56:20.239Z,102404.34
2018-10-18T09:58:48.530Z,102412.75
2018-10-18T10:01:22.194Z,102409.31
2018-10-18T10:03:50.486Z,102416.77
2018-10-18T10:06:18.773Z,102417.23
2018-10-18T10:08:47.061Z,102412.53
2018-10-18T10:11:15.374Z,102421.09
2018-10-18T10:13:43.759Z,102420.07
2018-10-18T10:16:11.962Z,102425.22
2018-10-18T10:18:41.338Z,102426.43
2018-10-18T10:21:09.662Z,102424.68
2018-10-18T10:23:37.975Z,102432.21
2018-10-18T10:26:06.278Z,102435.53
2018-10-18T10:28:34.607Z,102435.45
2018-10-18T10:31:03.016Z,102435.17
2018-10-18T10:33:31.259Z,102432.66
2018-10-18T10:35:59.570Z,102439.93
2018-10-18T10:38:27.857Z,102441.12
2018-10-18T10:40:56.197Z,102441.02
2018-10-18T10:43:24.533Z,102441.14
2018-10-18T10:45:52.956Z,102443.95
2018-10-18T10:48:21.224Z,102443.50
2018-10-18T10:50:49.491Z,102448.09
2018-10-18T10:53:17.790Z,102450.05
2018-10-18T10:55:46.087Z,102445.35
2018-10-18T10:58:14.472Z,102450.89
2018-10-18T11:01:16.767Z,102453.56
2018-10-18T11:03:46.329Z,102454.95
2018-10-18T11:06:14.867Z,102447.43
2018-10-18T11:08:44.238Z,102444.88
2018-10-18T11:11:13.467Z,102443.70
2018-10-18T11:13:41.765Z,102448.64
2018-10-18T11:16:10.108Z,102433.51
2018-10-18T11:18:39.011Z,102436.32
2018-10-18T11:21:08.435Z,102438.91
2018-10-18T11:23:37.698Z,102443.82
2018-10-18T11:26:06.101Z,102441.33
2018-10-18T11:28:34.354Z,102443.13
2018-10-18T11:31:02.678Z,102435.30
2018-10-18T11:33:31.061Z,102441.98
2018-10-18T11:35:59.590Z,102440.97
2018-10-18T11:38:27.940Z,102439.84
2018-10-18T11:40:56.254Z,102441.72
2018-10-18T11:43:24.575Z,102446.30
2018-10-18T11:45:52.882Z,102449.70
2018-10-18T11:48:21.231Z,102447.14
2018-10-18T11:50:49.511Z,102438.33
2018-10-18T11:53:17.791Z,102440.73
2018-10-18T11:55:46.126Z,102438.23
2018-10-18T11:58:14.666Z,102438.20
2018-10-18T12:00:42.966Z,102444.45
2018-10-18T12:03:11.366Z,102433.59
2018-10-18T12:05:40.010Z,102434.73
2018-10-18T12:08:08.342Z,102441.37
2018-10-18T12:10:36.675Z,102437.55
2018-10-18T12:13:05.003Z,102434.13
2018-10-18T12:15:33.289Z,102436.84
2018-10-18T12:18:01.611Z,102442.43
2018-10-18T12:20:29.891Z,102442.38
2018-10-18T12:22:58.292Z,102445.81
2018-10-18T12:25:26.545Z,102445.14
2018-10-18T12:27:54.833Z,102440.22
2018-10-18T12:30:23.134Z,102451.40
2018-10-18T12:32:51.418Z,102450.35
2018-10-18T12:35:19.730Z,102446.08
2018-10-18T12:37:48.031Z,102441.61
2018-10-18T12:40:16.396Z,102450.92
2018-10-18T12:42:45.610Z,102445.50
2018-10-18T12:45:14.078Z,102442.73
2018-10-18T12:47:42.405Z,102443.39
2018-10-18T12:50:11.719Z,102436.45
2018-10-18T12:52:40.003Z,102438.24
2018-10-18T12:55:08.306Z,102437.66
2018-10-18T12:57:36.589Z,102440.63
2018-10-18T13:00:05.761Z,102455.33
2018-10-18T13:02:34.068Z,102451.18
2018-10-18T13:05:02.327Z,102448.70
2018-10-18T13:07:30.665Z,102442.17
2018-10-18T13:09:58.953Z,102445.75
2018-10-18T13:12:27.559Z,102443.43
2018-10-18T13:14:55.722Z,102441.65
2018-10-18T13:17:24.006Z,102447.34
2018-10-18T13:19:52.348Z,102448.80
2018-10-18T13:22:20.623Z,102451.41
2018-10-18T13:24:48.913Z,102456.84
2018-10-18T13:27:17.188Z,102458.02
2018-10-18T13:29:45.479Z,102464.48
2018-10-18T13:32:14.792Z,102451.02
2018-10-18T13:34:43.342Z,102462.39
2018-10-18T13:37:11.714Z,102464.27
2018-10-18T13:39:40.018Z,102461.48
2018-10-18T13:42:08.380Z,102458.86
2018-10-18T13:44:37.753Z,102459.83
2018-10-18T13:47:06.178Z,102466.03
2018-10-18T13:49:34.490Z,102461.23
2018-10-18T13:52:02.782Z,102465.34
2018-10-18T13:54:31.065Z,102462.61
2018-10-18T13:56:59.370Z,102471.55
2018-10-18T13:59:38.991Z,102463.35
2018-10-18T14:02:08.470Z,102462.78
2018-10-18T14:04:36.645Z,102472.48
2018-10-18T14:07:04.950Z,102477.07
2018-10-18T14:09:33.234Z,102475.08
2018-10-18T14:12:01.525Z,102472.48
2018-10-18T14:14:29.821Z,102466.98
2018-10-18T14:16:58.184Z,102462.05
2018-10-18T14:19:26.381Z,102462.61
2018-10-18T14:21:54.705Z,102462.13
2018-10-18T14:24:22.990Z,102470.36
2018-10-18T14:26:51.305Z,102465.48
2018-10-18T14:29:20.884Z,102466.25
2018-10-18T14:31:49.144Z,102467.53
2018-10-18T14:34:17.469Z,102472.12
2018-10-18T14:36:45.750Z,102465.73
2018-10-18T14:39:14.031Z,102474.52
2018-10-18T14:41:42.342Z,102482.13
2018-10-18T14:44:10.677Z,102476.63
2018-10-18T14:46:38.921Z,102483.27
2018-10-18T14:49:07.230Z,102481.23
2018-10-18T14:51:35.694Z,102477.53
2018-10-18T14:54:03.993Z,102485.53
2018-10-18T14:56:32.290Z,102482.14
2018-10-18T14:59:00.621Z,102480.57
2018-10-18T15:01:29.213Z,102480.61
2018-10-18T15:03:58.598Z,102478.08
2018-10-18T15:06:30.070Z,102476.31
2018-10-18T15:08:58.374Z,102476.22
2018-10-18T15:11:26.661Z,102470.78
2018-10-18T15:13:55.086Z,102464.02
2018-10-18T15:16:23.370Z,102460.89
2018-10-18T15:18:51.722Z,102466.09
2018-10-18T15:21:19.995Z,102456.14
2018-10-18T15:23:48.298Z,102448.09
2018-10-18T15:26:16.666Z,102457.94
2018-10-18T15:28:44.873Z,102467.78
2018-10-18T15:31:13.181Z,102470.24
2018-10-18T15:33:41.505Z,102476.15
2018-10-18T15:36:10.819Z,102471.85
2018-10-18T15:38:39.358Z,102479.67
2018-10-18T15:41:07.598Z,102478.32
2018-10-18T15:43:35.818Z,102473.20
2018-10-18T15:46:04.162Z,102476.40
2018-10-18T15:48:32.451Z,102481.97
2018-10-18T15:51:00.768Z,102484.02
2018-10-18T15:53:29.162Z,102480.84
2018-10-18T15:55:57.398Z,102491.20
2018-10-18T15:58:25.695Z,102493.57
2018-10-18T16:00:53.996Z,102497.70
2018-10-18T16:03:22.288Z,102505.33
2018-10-18T16:05:50.607Z,102503.33
2018-10-18T16:08:18.893Z,102500.37
2018-10-18T16:10:47.225Z,102502.86
2018-10-18T16:13:15.549Z,102505.89
2018-10-18T16:15:43.876Z,102506.06
2018-10-18T16:18:12.202Z,102506.88
2018-10-18T16:20:40.498Z,102510.43
2018-10-18T16:23:08.880Z,102503.77
2018-10-18T16:25:37.230Z,102516.86
2018-10-18T16:28:05.551Z,102518.65
2018-10-18T16:30:33.894Z,102526.39
2018-10-18T16:33:02.190Z,102522.61
2018-10-18T16:35:30.494Z,102528.31
2018-10-18T16:37:58.796Z,102534.41
2018-10-18T16:40:27.934Z,102529.61
2018-10-18T16:42:56.283Z,102534.20
2018-10-18T16:45:24.654Z,102541.82
2018-10-18T16:47:53.068Z,102544.09
2018-10-18T16:50:21.334Z,102540.89
2018-10-18T16:52:49.626Z,102544.18
2018-10-18T16:55:18.170Z,102537.72
2018-10-18T16:57:46.486Z,102536.84
2018-10-18T17:00:14.840Z,102538.27
2018-10-18T17:02:43.071Z,102546.55
2018-10-18T17:05:11.363Z,102557.59
2018-10-18T17:07:39.765Z,102552.28
2018-10-18T17:10:08.133Z,102553.95
2018-10-18T17:12:36.418Z,102550.27
2018-10-18T17:15:05.719Z,102552.83
2018-10-18T17:17:34.056Z,102555.00
2018-10-18T17:20:02.362Z,102564.47
2018-10-18T17:22:30.645Z,102559.28
2018-10-18T17:24:59.334Z,102563.42
2018-10-18T17:27:27.728Z,102566.05
2018-10-18T17:29:55.923Z,102571.12
2018-10-18T17:32:24.241Z,102573.77
2018-10-18T17:34:52.537Z,102572.14
2018-10-18T17:37:20.894Z,102575.81
2018-10-18T17:39:49.286Z,102572.25
2018-10-18T17:42:17.660Z,102574.77
2018-10-18T17:44:45.915Z,102582.86
2018-10-18T17:47:14.259Z,102578.98
2018-10-18T17:49:42.522Z,102579.46
2018-10-18T17:52:10.836Z,102585.56
2018-10-18T17:54:39.143Z,102586.05
2018-10-18T17:57:07.466Z,102592.89
2018-10-18T17:59:35.768Z,102584.34
2018-10-18T18:02:04.117Z,102583.69
2018-10-18T18:04:33.447Z,102585.36
2018-10-18T18:07:01.904Z,102587.42
2018-10-18T18:09:30.115Z,102589.52
2018-10-18T18:11:58.418Z,102586.05
2018-10-18T18:14:27.106Z,102586.13
2018-10-18T18:16:56.575Z,102588.37
2018-10-18T18:19:24.879Z,102592.41
2018-10-18T18:21:55.212Z,102598.03
2018-10-18T18:24:23.952Z,102593.08
2018-10-18T18:26:52.288Z,102593.84
2018-10-18T18:29:20.570Z,102594.09
2018-10-18T18:31:48.892Z,102597.76
2018-10-18T18:34:17.162Z,102603.38
2018-10-18T18:36:45.450Z,102599.25
2018-10-18T18:39:13.732Z,102601.89
2018-10-18T18:41:42.030Z,102607.41
2018-10-18T18:44:10.306Z,102608.86
2018-10-18T18:46:38.736Z,102612.41
2018-10-18T18:49:07.196Z,102611.84
2018-10-18T18:51:35.769Z,102607.62
2018-10-18T18:54:04.011Z,102609.70
2018-10-18T18:56:32.313Z,102615.73
2018-10-18T18:59:00.586Z,102617.33
2018-10-18T19:01:28.878Z,102626.26
2018-10-18T19:03:57.163Z,102624.52
2018-10-18T19:06:25.449Z,102629.16
2018-10-18T19:08:53.777Z,102623.91
2018-10-18T19:11:22.022Z,102625.72
2018-10-18T19:13:50.323Z,102625.72
2018-10-18T19:16:18.598Z,102632.86
2018-10-18T19:18:46.862Z,102632.86
2018-10-18T19:21:15.150Z,102637.80
2018-10-18T19:23:43.438Z,102638.95
2018-10-18T19:26:11.861Z,102644.29
2018-10-18T19:28:40.114Z,102633.86
2018-10-18T19:31:08.370Z,102644.56
2018-10-18T19:33:36.651Z,102641.11
2018-10-18T19:36:05.962Z,102645.74
2018-10-18T19:38:34.385Z,102646.31
2018-10-18T19:41:02.617Z,102650.94
2018-10-18T19:43:30.894Z,102658.71
2018-10-18T19:45:59.216Z,102663.05
2018-10-18T19:48:27.599Z,102656.34
2018-10-18T19:50:56.901Z,102658.04
2018-10-18T19:53:25.164Z,102654.23
2018-10-18T19:55:53.490Z,102658.66
2018-10-18T19:58:22.100Z,102655.50
2018-10-18T20:00:50.745Z,102658.71
2018-10-18T20:03:19.111Z,102656.91
2018-10-18T20:05:47.383Z,102656.97
2018-10-18T20:08:15.747Z,102658.97
2018-10-18T20:10:43.974Z,102667.53
2018-10-18T20:13:12.250Z,102663.75
2018-10-18T20:15:40.526Z,102658.67
2018-10-18T20:18:08.873Z,102664.17
2018-10-18T20:20:37.261Z,102667.70
2018-10-18T20:23:05.558Z,102664.62
2018-10-18T20:25:33.888Z,102664.62
2018-10-18T20:28:02.126Z,102673.52
2018-10-18T20:30:30.574Z,102667.95
2018-10-18T20:32:59.924Z,102675.20
2018-10-18T20:35:28.199Z,102673.75
2018-10-18T20:37:56.572Z,102686.07
2018-10-18T20:40:24.895Z,102684.84
2018-10-18T20:42:53.169Z,102678.62
2018-10-18T20:45:29.522Z,102670.84
2018-10-18T20:47:58.317Z,102681.97
2018-10-18T20:50:26.470Z,102676.55
2018-10-18T20:52:54.802Z,102676.31
2018-10-18T20:55:23.361Z,102683.36
2018-10-18T20:57:51.647Z,102676.22
2018-10-18T21:00:19.926Z,102667.08
2018-10-18T21:02:48.213Z,102674.78
2018-10-18T21:05:16.505Z,102679.48
2018-10-18T21:07:44.798Z,102678.36
2018-10-18T21:11:37.499Z,102684.70
2018-10-18T21:14:06.518Z,102685.32
2018-10-18T21:16:34.818Z,102684.45
2018-10-18T21:19:03.483Z,102667.37
2018-10-18T21:21:31.982Z,102684.01
2018-10-18T21:24:00.278Z,102683.08
2018-10-18T21:26:28.570Z,102680.56
2018-10-18T21:28:56.883Z,102682.09
2018-10-18T21:31:25.138Z,102681.50
2018-10-18T21:33:53.643Z,102687.80
2018-10-18T21:36:21.925Z,102686.16
2018-10-18T21:38:50.194Z,102689.30
2018-10-18T21:41:18.477Z,102696.78
2018-10-18T21:43:46.782Z,102694.41
2018-10-18T21:46:15.112Z,102693.78
2018-10-18T21:48:43.602Z,102695.55
2018-10-18T21:51:11.890Z,102694.17
2018-10-18T21:53:40.154Z,102693.02
2018-10-18T21:56:08.447Z,102694.87
2018-10-18T21:58:36.731Z,102694.41
2018-10-18T22:01:06.118Z,102693.78
2018-10-18T22:03:35.486Z,102690.02
2018-10-18T22:06:03.788Z,102686.86
2018-10-18T22:08:33.062Z,102689.61
2018-10-18T22:11:01.372Z,102683.52
2018-10-18T22:13:29.656Z,102687.70
2018-10-18T22:15:57.947Z,102683.06
2018-10-18T22:18:26.219Z,102695.94
2018-10-18T22:20:54.504Z,102694.08
2018-10-18T22:23:22.827Z,102692.39
2018-10-18T22:25:51.111Z,102686.56
2018-10-18T22:28:19.429Z,102690.32
2018-10-18T22:30:47.697Z,102681.54
2018-10-18T22:33:16.033Z,102683.91
2018-10-18T22:35:44.427Z,102687.83
2018-10-18T22:38:12.693Z,102689.98
2018-10-18T22:40:40.966Z,102694.73
2018-10-18T22:43:09.326Z,102695.08
2018-10-18T22:45:37.598Z,102694.23
2018-10-18T22:48:06.006Z,102691.45
2018-10-18T22:50:34.305Z,102697.83
2018-10-18T22:53:02.632Z,102692.38
2018-10-18T22:55:30.859Z,102704.44
2018-10-18T22:57:59.152Z,102690.36
2018-10-18T23:00:27.436Z,102687.61
2018-10-18T23:02:55.761Z,102686.52
2018-10-18T23:05:24.018Z,102699.30
2018-10-18T23:07:52.378Z,102702.94
2018-10-18T23:10:20.667Z,102689.59
2018-10-18T23:12:48.927Z,102687.69
2018-10-18T23:15:17.239Z,102682.41
2018-10-18T23:17:45.494Z,102691.52
2018-10-18T23:20:13.758Z,102691.27
2018-10-18T23:22:42.033Z,102690.61
2018-10-18T23:25:10.322Z,102689.47
2018-10-18T23:27:38.598Z,102687.05
2018-10-18T23:30:08.186Z,102688.80
2018-10-18T23:32:36.525Z,102696.41
2018-10-18T23:35:05.216Z,102687.78
2018-10-18T23:37:33.489Z,102683.19
2018-10-18T23:40:01.779Z,102687.23
2018-10-18T23:42:30.062Z,102688.84
2018-10-18T23:44:58.355Z,102681.53
2018-10-18T23:47:26.626Z,102685.33
2018-10-18T23:49:54.907Z,102673.14
2018-10-18T23:52:23.166Z,102677.86
2018-10-18T23:54:51.471Z,102683.38
2018-10-18T23:57:19.795Z,102678.91
2018-10-18T23:59:48.002Z,102677.43
